Regan, North Dakota
Current Conditions -  °F | °C
As of 6:52 PM on Sunday 21 Dec 2014 (Local Time) from KBIS Reporting Station
Overcast Overcast  
Wind Chill: -6°   Ceiling: 400
Heat Index: -1°   Visibility: 7mi
Dew Point: -2°   Wind: 12mph
Humidity: 96%   Direction: 150°SSE
Pressure: 29.45"   Gusts: NA
Location:  47.16°N, 100.53°W
Report Text: KBIS 220052Z 15010KT 7SM OVC004 M01/M02 A2945 RMK AO2 SLP996 T10111017
Loading
Personal Weather Stations






























Interactive Weather Map New forecast layout! Learn more

10-Day Weather Forecast

Advertisements
Track Severe Weather on mobile